Time;durP1;ratioP1;P1;durP2;ratioP2;P2;SDS_P1;SDS_P2;PMS_P1;PMS_P2;Temp;Humidity;BMP_temperature;BMP_pressure;BME280_temperature;BME280_humidity;BME280_pressure;Samples;Min_cycle;Max_cycle;Signal;HPM_P1;HPM_P2
2021/06/29 00:00:20;0.00;0.00;0.62;0.00;0.00;0.62;;;;;25.10;70.40;;;;;;2259581;61;991;-71
2021/06/29 00:02:45;0.00;0.00;0.62;0.00;0.00;0.62;;;;;25.10;70.30;;;;;;2259828;61;972;-69
2021/06/29 00:05:11;0.00;0.00;0.62;0.00;0.00;0.62;;;;;25.10;70.30;;;;;;2259817;61;864;-69
2021/06/29 00:07:37;0.00;0.00;0.62;0.00;0.00;0.62;;;;;25.10;70.30;;;;;;2259785;61;1004;-69
2021/06/29 00:10:07;0.00;0.00;0.62;0.00;0.00;0.62;;;;;25.10;70.30;;;;;;2259764;61;824;-69
2021/06/29 00:12:32;100531.00;0.34;174.49;0.00;0.00;0.62;;;;;25.10;70.30;;;;;;2259793;61;922;-68
2021/06/29 00:14:58;0.00;0.00;0.62;0.00;0.00;0.62;;;;;25.00;70.30;;;;;;2259774;61;1008;-69
2021/06/29 00:17:23;0.00;0.00;0.62;0.00;0.00;0.62;;;;;25.00;70.40;;;;;;2259700;61;2014;-69
2021/06/29 00:19:49;0.00;0.00;0.62;0.00;0.00;0.62;;;;;25.00;70.30;;;;;;2259823;61;904;-68
2021/06/29 00:22:14;0.00;0.00;0.62;0.00;0.00;0.62;;;;;25.00;70.30;;;;;;2259855;61;918;-69
2021/06/29 00:24:40;0.00;0.00;0.62;0.00;0.00;0.62;;;;;25.00;70.30;;;;;;2259804;61;1037;-69
2021/06/29 00:27:06;0.00;0.00;0.62;0.00;0.00;0.62;;;;;25.00;70.20;;;;;;2255864;61;895;-69
2021/06/29 00:29:31;0.00;0.00;0.62;0.00;0.00;0.62;;;;;25.00;70.30;;;;;;2259696;61;836;-68
2021/06/29 00:31:57;0.00;0.00;0.62;0.00;0.00;0.62;;;;;25.00;70.30;;;;;;2259789;61;930;-68
2021/06/29 00:34:23;0.00;0.00;0.62;0.00;0.00;0.62;;;;;25.00;70.30;;;;;;2259717;61;947;-69
2021/06/29 00:36:48;19374.00;0.06;34.19;0.00;0.00;0.62;;;;;25.00;70.30;;;;;;2259385;61;2008;-68
2021/06/29 00:39:14;0.00;0.00;0.62;0.00;0.00;0.62;;;;;25.00;70.30;;;;;;2259573;61;982;-69
2021/06/29 00:41:39;0.00;0.00;0.62;0.00;0.00;0.62;;;;;25.00;70.30;;;;;;2259435;61;942;-70
2021/06/29 00:44:05;0.00;0.00;0.62;0.00;0.00;0.62;;;;;25.00;70.20;;;;;;2259760;61;1039;-69
2021/06/29 00:46:31;0.00;0.00;0.62;0.00;0.00;0.62;;;;;25.00;70.00;;;;;;2259440;61;943;-69
2021/06/29 00:48:56;0.00;0.00;0.62;0.00;0.00;0.62;;;;;25.00;70.00;;;;;;2259608;61;1149;-68
2021/06/29 00:51:22;0.00;0.00;0.62;0.00;0.00;0.62;;;;;25.00;70.20;;;;;;2259635;61;883;-72
2021/06/29 00:53:48;146962.00;0.49;254.57;77132.00;0.26;134.08;;;;;25.00;70.00;;;;;;2259690;61;994;-68
2021/06/29 00:56:14;0.00;0.00;0.62;0.00;0.00;0.62;;;;;25.00;70.00;;;;;;2255723;61;913;-70
2021/06/29 00:58:47;0.00;0.00;0.62;0.00;0.00;0.62;;;;;25.00;70.00;;;;;;2252413;61;1955;-69
2021/06/29 01:01:13;0.00;0.00;0.62;0.00;0.00;0.62;;;;;25.00;70.00;;;;;;2259727;61;1062;-71
2021/06/29 01:03:39;11548.00;0.04;20.63;0.00;0.00;0.62;;;;;25.00;70.20;;;;;;2255789;61;945;-68
2021/06/29 01:06:06;0.00;0.00;0.62;0.00;0.00;0.62;;;;;25.00;70.20;;;;;;2258753;61;1034;-73
2021/06/29 01:08:32;0.00;0.00;0.62;0.00;0.00;0.62;;;;;25.00;70.20;;;;;;2252222;61;971;-69
2021/06/29 01:10:57;0.00;0.00;0.62;0.00;0.00;0.62;;;;;25.00;70.30;;;;;;2255575;61;933;-69
2021/06/29 01:13:40;0.00;0.00;0.62;0.00;0.00;0.62;;;;;25.00;70.30;;;;;;2259285;61;929;-68
2021/06/29 01:16:06;0.00;0.00;0.62;0.00;0.00;0.62;;;;;25.00;70.30;;;;;;2259183;61;1024;-70
2021/06/29 01:18:35;0.00;0.00;0.62;0.00;0.00;0.62;;;;;25.00;70.20;;;;;;2255307;61;2008;-69
2021/06/29 01:21:01;49750.00;0.17;86.75;0.00;0.00;0.62;;;;;25.00;70.20;;;;;;2259564;61;949;-69
2021/06/29 01:23:28;0.00;0.00;0.62;0.00;0.00;0.62;;;;;25.00;70.30;;;;;;2259286;61;955;-72
2021/06/29 01:26:15;0.00;0.00;0.62;0.00;0.00;0.62;;;;;25.00;70.30;;;;;;2259305;61;933;-68
2021/06/29 01:29:04;0.00;0.00;0.62;0.00;0.00;0.62;;;;;25.00;70.40;;;;;;2259226;61;896;-69
2021/06/29 01:31:30;0.00;0.00;0.62;0.00;0.00;0.62;;;;;25.00;70.30;;;;;;2259287;61;927;-70
2021/06/29 01:33:56;0.00;0.00;0.62;0.00;0.00;0.62;;;;;25.00;70.40;;;;;;2255679;61;980;-69
2021/06/29 01:36:23;126592.00;0.42;219.45;0.00;0.00;0.62;;;;;25.00;70.40;;;;;;2259312;61;939;-69
2021/06/29 01:38:49;0.00;0.00;0.62;0.00;0.00;0.62;;;;;25.00;70.30;;;;;;2251929;61;1947;-71
2021/06/29 01:41:16;0.00;0.00;0.62;0.00;0.00;0.62;;;;;25.00;70.00;;;;;;2255512;61;905;-69
2021/06/29 01:43:47;24071.00;0.08;42.32;0.00;0.00;0.62;;;;;25.00;70.00;;;;;;2259371;61;930;-70
2021/06/29 01:46:14;0.00;0.00;0.62;0.00;0.00;0.62;;;;;25.00;70.00;;;;;;2259440;61;951;-68
2021/06/29 01:48:49;0.00;0.00;0.62;0.00;0.00;0.62;;;;;25.00;70.20;;;;;;2259389;61;897;-71
2021/06/29 01:51:15;0.00;0.00;0.62;0.00;0.00;0.62;;;;;25.00;70.20;;;;;;2259202;61;984;-69
2021/06/29 01:53:41;0.00;0.00;0.62;0.00;0.00;0.62;;;;;25.00;70.20;;;;;;2259254;61;1020;-68
2021/06/29 01:56:14;0.00;0.00;0.62;0.00;0.00;0.62;;;;;25.00;70.20;;;;;;2259072;61;973;-68
2021/06/29 01:58:43;0.00;0.00;0.62;0.00;0.00;0.62;;;;;25.00;70.20;;;;;;2255618;61;1951;-73
2021/06/29 02:01:09;0.00;0.00;0.62;0.00;0.00;0.62;;;;;25.00;70.00;;;;;;2258897;61;2059;-69
2021/06/29 02:03:35;180472.00;0.60;312.30;101194.00;0.34;175.63;;;;;24.90;70.00;;;;;;2259382;61;981;-69
2021/06/29 02:06:00;0.00;0.00;0.62;0.00;0.00;0.62;;;;;24.90;70.00;;;;;;2258376;61;974;-69
2021/06/29 02:08:26;0.00;0.00;0.62;0.00;0.00;0.62;;;;;24.90;69.90;;;;;;2259272;61;1025;-69
2021/06/29 02:10:51;200227.00;0.67;346.31;64693.00;0.22;112.59;;;;;24.90;69.90;;;;;;2259005;61;875;-72
2021/06/29 02:13:17;65557.00;0.22;114.08;0.00;0.00;0.62;;;;;24.90;69.90;;;;;;2259049;61;1128;-71
2021/06/29 02:15:43;50312.00;0.17;87.73;0.00;0.00;0.62;;;;;24.90;69.90;;;;;;2259242;61;848;-71
2021/06/29 02:18:08;0.00;0.00;0.62;0.00;0.00;0.62;;;;;24.90;69.90;;;;;;2259155;61;2009;-69
2021/06/29 02:20:34;0.00;0.00;0.62;0.00;0.00;0.62;;;;;24.90;69.90;;;;;;2259098;61;900;-70
2021/06/29 02:23:00;0.00;0.00;0.62;0.00;0.00;0.62;;;;;24.90;69.90;;;;;;2259612;61;952;-68
2021/06/29 02:25:25;0.00;0.00;0.62;0.00;0.00;0.62;;;;;24.90;69.90;;;;;;2259626;61;1051;-68
2021/06/29 02:27:51;0.00;0.00;0.62;0.00;0.00;0.62;;;;;24.90;69.90;;;;;;2259775;61;1044;-71
2021/06/29 02:30:17;0.00;0.00;0.62;0.00;0.00;0.62;;;;;24.90;69.80;;;;;;2259628;61;856;-71
2021/06/29 02:32:43;0.00;0.00;0.62;0.00;0.00;0.62;;;;;24.90;69.80;;;;;;2260145;61;944;-69
2021/06/29 02:35:09;0.00;0.00;0.62;0.00;0.00;0.62;;;;;24.90;69.80;;;;;;2256038;61;931;-70
2021/06/29 02:37:34;0.00;0.00;0.62;0.00;0.00;0.62;;;;;24.90;69.80;;;;;;2259871;61;2009;-70
2021/06/29 02:40:00;0.00;0.00;0.62;0.00;0.00;0.62;;;;;24.90;69.60;;;;;;2259809;61;912;-68
2021/06/29 02:42:25;0.00;0.00;0.62;0.00;0.00;0.62;;;;;24.90;69.90;;;;;;2259820;61;967;-68
2021/06/29 02:44:51;165529.00;0.55;286.56;0.00;0.00;0.62;;;;;24.90;70.00;;;;;;2259620;61;844;-73
2021/06/29 02:47:17;0.00;0.00;0.62;0.00;0.00;0.62;;;;;24.90;69.90;;;;;;2259954;61;993;-68
2021/06/29 02:49:43;44260.00;0.15;77.26;0.00;0.00;0.62;;;;;24.90;70.00;;;;;;2259943;61;891;-69
2021/06/29 02:52:08;0.00;0.00;0.62;0.00;0.00;0.62;;;;;24.90;70.20;;;;;;2256133;61;986;-70
2021/06/29 02:54:34;0.00;0.00;0.62;0.00;0.00;0.62;;;;;24.90;70.00;;;;;;2259954;61;989;-70
2021/06/29 02:56:59;0.00;0.00;0.62;0.00;0.00;0.62;;;;;24.90;70.00;;;;;;2259668;61;2025;-68
2021/06/29 02:59:25;143823.00;0.48;249.16;0.00;0.00;0.62;;;;;24.90;70.00;;;;;;2259757;61;1029;-70
2021/06/29 03:01:51;85102.00;0.28;147.85;16811.00;0.06;29.75;;;;;24.90;70.00;;;;;;2259837;61;806;-70
2021/06/29 03:04:17;0.00;0.00;0.62;0.00;0.00;0.62;;;;;24.90;70.00;;;;;;2259884;61;867;-70
2021/06/29 03:06:42;0.00;0.00;0.62;0.00;0.00;0.62;;;;;24.90;70.00;;;;;;2255947;61;931;-68
2021/06/29 03:09:08;0.00;0.00;0.62;0.00;0.00;0.62;;;;;24.90;70.00;;;;;;2259827;61;911;-72
2021/06/29 03:11:34;0.00;0.00;0.62;0.00;0.00;0.62;;;;;24.90;70.20;;;;;;2259762;61;845;-70
2021/06/29 03:14:00;0.00;0.00;0.62;0.00;0.00;0.62;;;;;24.90;70.20;;;;;;2259794;61;946;-67
2021/06/29 03:16:26;0.00;0.00;0.62;0.00;0.00;0.62;;;;;24.80;70.20;;;;;;2259752;61;930;-68
2021/06/29 03:18:51;0.00;0.00;0.62;0.00;0.00;0.62;;;;;24.80;70.20;;;;;;2252611;61;2025;-67
2021/06/29 03:21:17;0.00;0.00;0.62;0.00;0.00;0.62;;;;;24.80;70.20;;;;;;2255846;61;928;-69
2021/06/29 03:23:43;0.00;0.00;0.62;0.00;0.00;0.62;;;;;24.80;70.20;;;;;;2259693;61;1133;-72
2021/06/29 03:26:09;0.00;0.00;0.62;0.00;0.00;0.62;;;;;24.80;70.30;;;;;;2259618;61;938;-69
2021/06/29 03:28:34;0.00;0.00;0.62;0.00;0.00;0.62;;;;;24.80;70.00;;;;;;2259681;61;853;-68
2021/06/29 03:31:00;0.00;0.00;0.62;0.00;0.00;0.62;;;;;24.80;70.00;;;;;;2259566;61;1000;-68
2021/06/29 03:33:25;0.00;0.00;0.62;0.00;0.00;0.62;;;;;24.80;70.00;;;;;;2255741;61;1040;-70
2021/06/29 03:35:51;311762.00;1.04;538.14;127948.00;0.43;221.79;;;;;24.80;70.20;;;;;;2259617;61;903;-70
2021/06/29 03:38:16;0.00;0.00;0.62;0.00;0.00;0.62;;;;;24.90;70.20;;;;;;2259821;61;2016;-68
2021/06/29 03:40:42;0.00;0.00;0.62;0.00;0.00;0.62;;;;;24.80;70.30;;;;;;2259674;61;1037;-71
2021/06/29 03:43:08;0.00;0.00;0.62;0.00;0.00;0.62;;;;;24.80;70.20;;;;;;2255880;61;979;-70
2021/06/29 03:45:33;0.00;0.00;0.62;0.00;0.00;0.62;;;;;24.80;70.30;;;;;;2259395;61;965;-70
2021/06/29 03:47:59;0.00;0.00;0.62;0.00;0.00;0.62;;;;;24.80;70.30;;;;;;2259503;61;887;-71
2021/06/29 03:50:26;0.00;0.00;0.62;0.00;0.00;0.62;;;;;24.80;70.30;;;;;;2259441;61;1057;-69
2021/06/29 03:52:52;0.00;0.00;0.62;0.00;0.00;0.62;;;;;24.80;70.20;;;;;;2259688;61;929;-73
2021/06/29 03:55:17;216588.00;0.72;374.47;121456.00;0.40;210.59;;;;;24.80;70.20;;;;;;2256058;61;994;-74
2021/06/29 03:57:43;0.00;0.00;0.62;0.00;0.00;0.62;;;;;24.80;70.20;;;;;;2259851;61;2004;-70
2021/06/29 04:00:09;0.00;0.00;0.62;0.00;0.00;0.62;;;;;24.80;70.00;;;;;;2255926;61;875;-70
2021/06/29 04:02:35;0.00;0.00;0.62;0.00;0.00;0.62;;;;;24.80;70.20;;;;;;2255745;61;1125;-75
2021/06/29 04:05:01;0.00;0.00;0.62;0.00;0.00;0.62;;;;;24.80;70.20;;;;;;2259683;61;933;-72
2021/06/29 04:07:28;216137.00;0.72;373.70;131100.00;0.44;227.23;;;;;24.80;70.00;;;;;;2259788;61;960;-70
2021/06/29 04:09:54;0.00;0.00;0.62;0.00;0.00;0.62;;;;;24.80;70.20;;;;;;2255641;61;1035;-73
2021/06/29 04:12:20;0.00;0.00;0.62;0.00;0.00;0.62;;;;;24.80;70.00;;;;;;2259611;61;981;-75
2021/06/29 04:14:46;204232.00;0.68;353.21;0.00;0.00;0.62;;;;;24.80;70.20;;;;;;2259518;61;939;-73
2021/06/29 04:17:12;0.00;0.00;0.62;0.00;0.00;0.62;;;;;24.80;70.00;;;;;;2259546;61;1989;-70
2021/06/29 04:19:39;0.00;0.00;0.62;0.00;0.00;0.62;;;;;24.80;70.00;;;;;;2255582;61;832;-69
2021/06/29 04:22:05;0.00;0.00;0.62;0.00;0.00;0.62;;;;;24.80;70.00;;;;;;2259685;61;944;-72
2021/06/29 04:24:31;0.00;0.00;0.62;0.00;0.00;0.62;;;;;24.80;70.20;;;;;;2255549;61;938;-70
2021/06/29 04:26:56;0.00;0.00;0.62;0.00;0.00;0.62;;;;;24.80;70.30;;;;;;2259501;61;1393;-69
2021/06/29 04:29:22;0.00;0.00;0.62;0.00;0.00;0.62;;;;;24.80;70.30;;;;;;2259654;61;1057;-70
2021/06/29 04:31:48;0.00;0.00;0.62;0.00;0.00;0.62;;;;;24.80;70.30;;;;;;2255577;61;922;-70
2021/06/29 04:34:13;0.00;0.00;0.62;0.00;0.00;0.62;;;;;24.80;70.30;;;;;;2259620;61;1277;-72
2021/06/29 04:36:39;0.00;0.00;0.62;0.00;0.00;0.62;;;;;24.80;70.20;;;;;;2259230;61;1331;-71
2021/06/29 04:39:04;0.00;0.00;0.62;0.00;0.00;0.62;;;;;24.80;70.20;;;;;;2259570;61;1964;-71
2021/06/29 04:41:30;0.00;0.00;0.62;0.00;0.00;0.62;;;;;24.80;70.00;;;;;;2255817;61;908;-71
2021/06/29 04:43:56;0.00;0.00;0.62;0.00;0.00;0.62;;;;;24.80;69.90;;;;;;2259412;61;906;-70
2021/06/29 04:46:22;0.00;0.00;0.62;0.00;0.00;0.62;;;;;24.80;69.60;;;;;;2259485;61;924;-70
2021/06/29 04:48:47;0.00;0.00;0.62;0.00;0.00;0.62;;;;;24.80;69.40;;;;;;2259311;61;1000;-70
2021/06/29 04:51:13;0.00;0.00;0.62;0.00;0.00;0.62;;;;;24.80;69.40;;;;;;2259436;61;954;-75
2021/06/29 04:53:38;0.00;0.00;0.62;0.00;0.00;0.62;;;;;24.80;69.30;;;;;;2255540;61;991;-70
2021/06/29 04:56:16;0.00;0.00;0.62;0.00;0.00;0.62;;;;;24.80;69.10;;;;;;2259616;61;1214;-70
2021/06/29 04:58:56;0.00;0.00;0.62;0.00;0.00;0.62;;;;;24.80;69.10;;;;;;2259376;61;1943;-71
2021/06/29 05:01:22;0.00;0.00;0.62;0.00;0.00;0.62;;;;;24.80;69.10;;;;;;2259570;61;845;-72
2021/06/29 05:03:47;0.00;0.00;0.62;0.00;0.00;0.62;;;;;24.80;69.00;;;;;;2259406;61;1228;-70
2021/06/29 05:06:15;0.00;0.00;0.62;0.00;0.00;0.62;;;;;24.80;68.90;;;;;;2259437;61;1164;-69
2021/06/29 05:08:41;0.00;0.00;0.62;0.00;0.00;0.62;;;;;24.80;68.40;;;;;;2259286;61;1181;-70
2021/06/29 05:11:06;0.00;0.00;0.62;0.00;0.00;0.62;;;;;24.80;68.70;;;;;;2259520;61;1213;-72
2021/06/29 05:13:32;0.00;0.00;0.62;0.00;0.00;0.62;;;;;24.80;68.90;;;;;;2259459;61;1235;-71
2021/06/29 05:15:58;0.00;0.00;0.62;0.00;0.00;0.62;;;;;24.80;68.70;;;;;;2259186;61;1017;-73
2021/06/29 05:18:23;0.00;0.00;0.62;0.00;0.00;0.62;;;;;24.80;68.70;;;;;;2259247;61;1939;-71
2021/06/29 05:20:49;0.00;0.00;0.62;0.00;0.00;0.62;;;;;24.80;68.70;;;;;;2259133;61;1085;-71
2021/06/29 05:23:14;0.00;0.00;0.62;0.00;0.00;0.62;;;;;24.80;68.60;;;;;;2259466;61;1266;-69
2021/06/29 05:25:40;0.00;0.00;0.62;0.00;0.00;0.62;;;;;24.80;68.70;;;;;;2259393;61;1187;-71
2021/06/29 05:28:06;0.00;0.00;0.62;0.00;0.00;0.62;;;;;24.80;68.70;;;;;;2259433;61;1033;-69
2021/06/29 05:30:31;0.00;0.00;0.62;0.00;0.00;0.62;;;;;24.80;68.60;;;;;;2259227;61;1049;-70
2021/06/29 05:32:57;0.00;0.00;0.62;0.00;0.00;0.62;;;;;24.80;68.90;;;;;;2259475;61;939;-69
2021/06/29 05:35:24;0.00;0.00;0.62;0.00;0.00;0.62;;;;;24.80;68.90;;;;;;2259281;61;1017;-69
2021/06/29 05:37:50;88704.00;0.30;154.07;0.00;0.00;0.62;;;;;24.80;69.00;;;;;;2259077;61;1941;-73
2021/06/29 05:40:16;0.00;0.00;0.62;0.00;0.00;0.62;;;;;24.80;69.10;;;;;;2255568;61;1072;-72
2021/06/29 05:42:41;0.00;0.00;0.62;0.00;0.00;0.62;;;;;24.80;69.10;;;;;;2259290;61;1007;-72
2021/06/29 05:45:07;0.00;0.00;0.62;0.00;0.00;0.62;;;;;24.80;69.30;;;;;;2259459;61;984;-69
2021/06/29 05:47:35;0.00;0.00;0.62;0.00;0.00;0.62;;;;;24.80;69.40;;;;;;2255434;61;991;-69
2021/06/29 05:50:01;0.00;0.00;0.62;0.00;0.00;0.62;;;;;24.80;69.30;;;;;;2259033;61;1018;-69
2021/06/29 05:52:27;0.00;0.00;0.62;0.00;0.00;0.62;;;;;24.80;69.30;;;;;;2259229;61;944;-69
2021/06/29 05:54:52;0.00;0.00;0.62;0.00;0.00;0.62;;;;;24.80;69.40;;;;;;2259428;61;898;-69
2021/06/29 05:57:18;0.00;0.00;0.62;0.00;0.00;0.62;;;;;24.80;69.30;;;;;;2259076;61;1939;-71
2021/06/29 05:59:44;0.00;0.00;0.62;0.00;0.00;0.62;;;;;24.80;69.30;;;;;;2259806;61;883;-68
2021/06/29 06:02:10;0.00;0.00;0.62;0.00;0.00;0.62;;;;;24.80;69.40;;;;;;2256265;61;945;-70
2021/06/29 06:04:36;0.00;0.00;0.62;0.00;0.00;0.62;;;;;24.80;69.40;;;;;;2256047;61;914;-72
2021/06/29 06:07:02;0.00;0.00;0.62;0.00;0.00;0.62;;;;;24.80;69.30;;;;;;2259872;61;1011;-69
2021/06/29 06:09:27;0.00;0.00;0.62;0.00;0.00;0.62;;;;;24.80;69.30;;;;;;2259736;61;1026;-71
2021/06/29 06:11:53;0.00;0.00;0.62;0.00;0.00;0.62;;;;;24.80;69.10;;;;;;2260042;61;966;-70
2021/06/29 06:14:18;0.00;0.00;0.62;0.00;0.00;0.62;;;;;24.80;69.10;;;;;;2259848;61;981;-69
2021/06/29 06:16:44;0.00;0.00;0.62;0.00;0.00;0.62;;;;;24.90;69.30;;;;;;2260157;61;974;-70
2021/06/29 06:19:10;0.00;0.00;0.62;0.00;0.00;0.62;;;;;24.90;69.30;;;;;;2259843;61;2028;-69
2021/06/29 06:21:35;0.00;0.00;0.62;0.00;0.00;0.62;;;;;24.90;69.50;;;;;;2259790;61;1005;-70
2021/06/29 06:24:01;0.00;0.00;0.62;0.00;0.00;0.62;;;;;24.90;69.30;;;;;;2259707;61;978;-72
2021/06/29 06:26:26;0.00;0.00;0.62;0.00;0.00;0.62;;;;;24.90;69.30;;;;;;2259664;61;1008;-72
2021/06/29 06:28:52;0.00;0.00;0.62;0.00;0.00;0.62;;;;;24.90;69.50;;;;;;2259957;61;1014;-69
2021/06/29 06:31:18;0.00;0.00;0.62;0.00;0.00;0.62;;;;;24.90;69.50;;;;;;2259705;61;979;-72
2021/06/29 06:33:43;0.00;0.00;0.62;0.00;0.00;0.62;;;;;24.90;69.60;;;;;;2259891;61;923;-72
2021/06/29 06:36:09;221750.00;0.74;383.35;150964.00;0.50;261.47;;;;;25.00;69.90;;;;;;2260054;61;979;-69
2021/06/29 06:38:35;0.00;0.00;0.62;0.00;0.00;0.62;;;;;25.00;69.80;;;;;;2252881;61;2004;-71
2021/06/29 06:41:01;0.00;0.00;0.62;0.00;0.00;0.62;;;;;25.00;69.60;;;;;;2259658;61;827;-72
2021/06/29 06:43:26;0.00;0.00;0.62;0.00;0.00;0.62;;;;;24.90;69.90;;;;;;2259938;61;973;-70
2021/06/29 06:45:52;0.00;0.00;0.62;0.00;0.00;0.62;;;;;25.00;69.80;;;;;;2259684;61;996;-70
2021/06/29 06:48:18;0.00;0.00;0.62;0.00;0.00;0.62;;;;;25.00;69.90;;;;;;2259858;61;1013;-70
2021/06/29 06:50:43;0.00;0.00;0.62;0.00;0.00;0.62;;;;;25.00;69.90;;;;;;2259604;61;886;-73
2021/06/29 06:53:09;78756.00;0.26;136.89;0.00;0.00;0.62;;;;;25.00;69.50;;;;;;2259791;61;1013;-69
2021/06/29 06:55:35;0.00;0.00;0.62;0.00;0.00;0.62;;;;;25.00;69.40;;;;;;2259565;61;971;-69
2021/06/29 06:58:00;0.00;0.00;0.62;0.00;0.00;0.62;;;;;25.00;69.40;;;;;;2259924;61;1994;-71
2021/06/29 07:00:26;0.00;0.00;0.62;0.00;0.00;0.62;;;;;25.00;69.50;;;;;;2260045;61;1057;-69
2021/06/29 07:02:54;0.00;0.00;0.62;0.00;0.00;0.62;;;;;25.00;69.80;;;;;;2255933;61;955;-70
2021/06/29 07:05:20;0.00;0.00;0.62;0.00;0.00;0.62;;;;;25.00;69.60;;;;;;2260037;61;963;-71
2021/06/29 07:07:45;0.00;0.00;0.62;0.00;0.00;0.62;;;;;25.00;69.50;;;;;;2259781;61;925;-72
2021/06/29 07:10:11;0.00;0.00;0.62;0.00;0.00;0.62;;;;;25.00;69.60;;;;;;2259588;61;912;-69
2021/06/29 07:12:37;0.00;0.00;0.62;0.00;0.00;0.62;;;;;25.00;69.50;;;;;;2252735;61;888;-69
2021/06/29 07:15:04;0.00;0.00;0.62;0.00;0.00;0.62;;;;;25.00;69.60;;;;;;2259656;61;1044;-74
2021/06/29 07:17:29;0.00;0.00;0.62;0.00;0.00;0.62;;;;;25.00;69.80;;;;;;2252432;61;2022;-69
2021/06/29 07:19:55;23758.00;0.08;41.78;0.00;0.00;0.62;;;;;25.00;69.90;;;;;;2259778;61;1193;-69
2021/06/29 07:22:20;0.00;0.00;0.62;0.00;0.00;0.62;;;;;25.00;69.90;;;;;;2259618;61;916;-72
2021/06/29 07:24:46;0.00;0.00;0.62;0.00;0.00;0.62;;;;;25.00;70.20;;;;;;2255869;61;933;-69
2021/06/29 07:27:12;92183.00;0.31;160.08;0.00;0.00;0.62;;;;;25.00;70.20;;;;;;2255894;61;871;-70
2021/06/29 07:29:38;0.00;0.00;0.62;0.00;0.00;0.62;;;;;25.00;70.00;;;;;;2259615;61;961;-70
2021/06/29 07:32:04;0.00;0.00;0.62;0.00;0.00;0.62;;;;;25.00;69.90;;;;;;2259431;61;1204;-70
2021/06/29 07:34:30;0.00;0.00;0.62;0.00;0.00;0.62;;;;;25.00;70.00;;;;;;2259744;61;899;-69
2021/06/29 07:36:55;0.00;0.00;0.62;0.00;0.00;0.62;;;;;25.10;69.50;;;;;;2259783;61;1094;-69
2021/06/29 07:39:21;0.00;0.00;0.62;0.00;0.00;0.62;;;;;25.00;69.00;;;;;;2259356;61;2016;-69
2021/06/29 07:41:47;111926.00;0.37;194.15;17805.00;0.06;31.47;;;;;25.00;68.90;;;;;;2259634;61;1053;-69
2021/06/29 07:44:13;31948.00;0.11;55.95;0.00;0.00;0.62;;;;;25.10;69.00;;;;;;2259806;61;953;-70
2021/06/29 07:46:38;0.00;0.00;0.62;0.00;0.00;0.62;;;;;25.10;69.10;;;;;;2259583;61;1013;-70
2021/06/29 07:49:04;120335.00;0.40;208.66;0.00;0.00;0.62;;;;;25.10;68.90;;;;;;2259566;61;1188;-70
2021/06/29 07:51:30;18399.00;0.06;32.50;0.00;0.00;0.62;;;;;25.10;68.60;;;;;;2259516;61;1009;-71
2021/06/29 07:53:56;41731.00;0.14;72.88;0.00;0.00;0.62;;;;;25.10;68.20;;;;;;2259354;61;887;-74
2021/06/29 07:56:21;16487.00;0.05;29.19;0.00;0.00;0.62;;;;;25.10;68.40;;;;;;2259591;61;1002;-72
2021/06/29 07:58:47;0.00;0.00;0.62;0.00;0.00;0.62;;;;;25.10;68.60;;;;;;2259653;61;1955;-70
2021/06/29 08:01:13;192955.00;0.64;333.80;91562.00;0.31;159.00;;;;;25.10;68.60;;;;;;2259585;61;896;-70
2021/06/29 08:03:39;214088.00;0.71;370.17;137056.00;0.46;237.50;;;;;25.10;68.40;;;;;;2259448;61;926;-69
2021/06/29 08:06:04;0.00;0.00;0.62;0.00;0.00;0.62;;;;;25.10;68.10;;;;;;2259525;61;997;-69
2021/06/29 08:08:30;0.00;0.00;0.62;0.00;0.00;0.62;;;;;25.20;68.20;;;;;;2255589;61;973;-69
2021/06/29 08:10:59;0.00;0.00;0.62;0.00;0.00;0.62;;;;;25.10;68.00;;;;;;2259509;61;981;-69
2021/06/29 08:13:25;0.00;0.00;0.62;0.00;0.00;0.62;;;;;25.10;68.40;;;;;;2259626;61;969;-69
2021/06/29 08:15:51;0.00;0.00;0.62;0.00;0.00;0.62;;;;;25.10;68.40;;;;;;2259258;61;954;-70
2021/06/29 08:18:16;0.00;0.00;0.62;0.00;0.00;0.62;;;;;25.10;68.50;;;;;;2259426;61;2012;-70
2021/06/29 08:20:43;0.00;0.00;0.62;0.00;0.00;0.62;;;;;25.10;68.20;;;;;;2259411;61;942;-69
2021/06/29 08:23:08;0.00;0.00;0.62;0.00;0.00;0.62;;;;;25.10;68.00;;;;;;2259269;61;955;-70
2021/06/29 08:25:34;0.00;0.00;0.62;0.00;0.00;0.62;;;;;25.10;68.10;;;;;;2252363;61;872;-69
2021/06/29 08:28:00;0.00;0.00;0.62;0.00;0.00;0.62;;;;;25.10;67.70;;;;;;2259335;61;911;-69
2021/06/29 08:30:27;0.00;0.00;0.62;0.00;0.00;0.62;;;;;25.10;67.60;;;;;;2259339;61;948;-68
2021/06/29 08:32:52;0.00;0.00;0.62;0.00;0.00;0.62;;;;;25.10;67.70;;;;;;2259613;61;851;-69
2021/06/29 08:35:18;0.00;0.00;0.62;0.00;0.00;0.62;;;;;25.10;67.30;;;;;;2259518;61;1017;-71
2021/06/29 08:37:44;0.00;0.00;0.62;0.00;0.00;0.62;;;;;25.10;67.30;;;;;;2259395;61;2009;-71
2021/06/29 08:40:10;0.00;0.00;0.62;0.00;0.00;0.62;;;;;25.10;67.20;;;;;;2259283;61;1374;-69
2021/06/29 08:42:37;323549.00;1.08;558.40;223290.00;0.74;386.00;;;;;25.10;67.30;;;;;;2259311;61;996;-73
2021/06/29 08:45:05;286995.00;0.96;495.56;104100.00;0.35;180.65;;;;;25.10;67.60;;;;;;2259454;61;983;-70
2021/06/29 08:47:35;0.00;0.00;0.62;0.00;0.00;0.62;;;;;25.10;67.60;;;;;;2255776;61;935;-72
2021/06/29 08:50:01;0.00;0.00;0.62;0.00;0.00;0.62;;;;;25.10;67.60;;;;;;2259472;61;966;-72
2021/06/29 08:52:27;0.00;0.00;0.62;0.00;0.00;0.62;;;;;25.10;67.30;;;;;;2255552;61;1045;-70
2021/06/29 08:54:53;0.00;0.00;0.62;0.00;0.00;0.62;;;;;25.10;67.20;;;;;;2259498;61;1002;-69
2021/06/29 08:57:18;0.00;0.00;0.62;0.00;0.00;0.62;;;;;25.10;67.10;;;;;;2255505;61;1943;-71
2021/06/29 08:59:44;0.00;0.00;0.62;0.00;0.00;0.62;;;;;25.10;67.30;;;;;;2259578;61;930;-70
2021/06/29 09:02:10;0.00;0.00;0.62;0.00;0.00;0.62;;;;;25.10;67.10;;;;;;2259422;61;1101;-71
2021/06/29 09:04:44;0.00;0.00;0.62;0.00;0.00;0.62;;;;;25.10;67.20;;;;;;2259687;61;925;-71
2021/06/29 09:07:30;0.00;0.00;0.62;0.00;0.00;0.62;;;;;25.10;66.50;;;;;;2259450;61;805;-71
2021/06/29 09:10:00;0.00;0.00;0.62;0.00;0.00;0.62;;;;;25.10;66.40;;;;;;2255562;61;887;-70
2021/06/29 09:12:43;0.00;0.00;0.62;0.00;0.00;0.62;;;;;25.10;66.40;;;;;;2259220;61;1037;-69
2021/06/29 09:15:42;0.00;0.00;0.62;0.00;0.00;0.62;;;;;25.10;66.70;;;;;;2259152;61;1018;-70
2021/06/29 09:18:13;0.00;0.00;0.62;0.00;0.00;0.62;;;;;25.20;66.80;;;;;;2257066;61;2134;-70
2021/06/29 09:20:49;0.00;0.00;0.62;0.00;0.00;0.62;;;;;25.10;66.30;;;;;;2259548;61;976;-71
2021/06/29 09:23:17;0.00;0.00;0.62;0.00;0.00;0.62;;;;;25.20;66.40;;;;;;2259547;61;1038;-70
2021/06/29 09:25:47;0.00;0.00;0.62;0.00;0.00;0.62;;;;;25.20;66.40;;;;;;2255479;61;1015;-70
2021/06/29 09:28:17;0.00;0.00;0.62;0.00;0.00;0.62;;;;;25.20;66.50;;;;;;2259272;61;881;-69
2021/06/29 09:30:46;0.00;0.00;0.62;0.00;0.00;0.62;;;;;25.20;66.50;;;;;;2259191;61;926;-72
2021/06/29 09:33:14;0.00;0.00;0.62;0.00;0.00;0.62;;;;;25.20;66.40;;;;;;2259574;61;988;-70
2021/06/29 09:35:40;0.00;0.00;0.62;0.00;0.00;0.62;;;;;25.20;66.20;;;;;;2256132;61;1038;-70
2021/06/29 09:38:07;0.00;0.00;0.62;0.00;0.00;0.62;;;;;25.20;66.30;;;;;;2256202;61;1943;-71
2021/06/29 09:40:33;0.00;0.00;0.62;0.00;0.00;0.62;;;;;25.20;66.70;;;;;;2259731;61;980;-71
2021/06/29 09:43:08;0.00;0.00;0.62;0.00;0.00;0.62;;;;;25.20;66.40;;;;;;2256417;61;955;-69
2021/06/29 09:45:40;21083.00;0.07;37.15;0.00;0.00;0.62;;;;;25.20;66.70;;;;;;2260043;61;848;-72
2021/06/29 09:48:10;0.00;0.00;0.62;0.00;0.00;0.62;;;;;25.20;66.40;;;;;;2259933;61;929;-72
2021/06/29 09:50:41;0.00;0.00;0.62;0.00;0.00;0.62;;;;;25.20;66.20;;;;;;2259324;61;1006;-75
2021/06/29 09:53:26;0.00;0.00;0.62;0.00;0.00;0.62;;;;;25.20;66.40;;;;;;2259837;61;995;-69
2021/06/29 09:55:54;0.00;0.00;0.62;0.00;0.00;0.62;;;;;25.20;66.30;;;;;;2259887;61;1033;-71
2021/06/29 09:58:20;16438.00;0.05;29.10;0.00;0.00;0.62;;;;;25.20;66.00;;;;;;2256041;61;2014;-69
2021/06/29 10:00:53;0.00;0.00;0.62;0.00;0.00;0.62;;;;;25.20;66.20;;;;;;2260058;61;982;-69
2021/06/29 10:03:28;0.00;0.00;0.62;0.00;0.00;0.62;;;;;25.20;66.30;;;;;;2259893;61;1049;-72
2021/06/29 10:05:55;0.00;0.00;0.62;0.00;0.00;0.62;;;;;25.20;66.00;;;;;;2256432;61;807;-70
2021/06/29 10:08:25;0.00;0.00;0.62;0.00;0.00;0.62;;;;;25.20;66.00;;;;;;2260020;61;906;-74
2021/06/29 10:11:05;0.00;0.00;0.62;0.00;0.00;0.62;;;;;25.20;66.00;;;;;;2259329;61;937;-74
2021/06/29 10:13:59;0.00;0.00;0.62;0.00;0.00;0.62;;;;;25.20;65.90;;;;;;2259854;61;918;-70
2021/06/29 10:16:30;0.00;0.00;0.62;0.00;0.00;0.62;;;;;25.20;66.20;;;;;;2256573;61;1045;-69
2021/06/29 10:21:25;0.00;0.00;0.62;0.00;0.00;0.62;;;;;25.30;67.20;;;;;;2260002;61;937;-73
2021/06/29 10:23:59;0.00;0.00;0.62;0.00;0.00;0.62;;;;;25.30;66.70;;;;;;2260000;61;1000;-70
2021/06/29 10:26:26;0.00;0.00;0.62;0.00;0.00;0.62;;;;;25.30;66.90;;;;;;2256045;61;919;-70
2021/06/29 10:28:52;0.00;0.00;0.62;0.00;0.00;0.62;;;;;25.30;67.30;;;;;;2256250;61;871;-74
2021/06/29 10:31:26;0.00;0.00;0.62;0.00;0.00;0.62;;;;;25.30;67.20;;;;;;2259916;61;1523;-72
2021/06/29 10:33:53;0.00;0.00;0.62;0.00;0.00;0.62;;;;;25.30;67.10;;;;;;2259969;61;939;-72
2021/06/29 10:36:19;0.00;0.00;0.62;0.00;0.00;0.62;;;;;25.30;66.80;;;;;;2259867;61;954;-69